WetterOnline ( http://www.wetteronline.de )

Wetter aktuell Greifswald

Aktuelles Wetter: Greifswald (6m)

6-stündlich | Neueste Meldungen
Ortszeit Temperatur Wetter
Fr, 20.04. 14:00 24.9° C fast wolkenlos
Fr, 20.04. 8:00 14.9° C wolkenlos
Fr, 20.04. 2:00 9.2° C wolkenlos
Do, 19.04. 20:00 16.2° C leicht bewölkt
Do, 19.04. 14:00 19.1° C fast wolkenlos
Do, 19.04. 8:00 12.4° C wolkenlos
Do, 19.04. 2:00 12.2° C wolkenlos
Mi, 18.04. 20:00 18.6° C wolkenlos
Ortszeit Temperatur Wetter
Fr, 20.04. 16:00 26.7° C fast wolkenlos
Fr, 20.04. 15:50 26.7° C wolkenlos
Fr, 20.04. 15:40 26.4° C wolkenlos
Fr, 20.04. 15:30 26.7° C fast wolkenlos
Fr, 20.04. 15:20 26.7° C wolkenlos
Fr, 20.04. 15:10 26.3° C wolkenlos
Fr, 20.04. 15:00 26.4° C fast wolkenlos
Fr, 20.04. 14:30 25.3° C wolkenlos
Fr, 20.04. 14:00 24.9° C fast wolkenlos
Fr, 20.04. 13:30 24.5° C fast wolkenlos
Fr, 20.04. 13:00 23.7° C fast wolkenlos
Ortszeit Relative Feuchte Sichtweite
Fr, 20.04. 14:00 47% 20 km
Fr, 20.04. 8:00 81% 16 km
Fr, 20.04. 2:00 98% 7 km
Do, 19.04. 20:00 75% 15 km
Do, 19.04. 14:00 63% 30 km
Do, 19.04. 8:00 85% 6 km
Do, 19.04. 2:00 88% 10 km
Mi, 18.04. 20:00 63% 40 km
Ortszeit Relative Feuchte Sichtweite
Fr, 20.04. 16:00 33% 23 km
Fr, 20.04. 15:50 33% -
Fr, 20.04. 15:40 32% -
Fr, 20.04. 15:30 35% 25 km
Fr, 20.04. 15:20 35% -
Fr, 20.04. 15:10 37% -
Fr, 20.04. 15:00 40% 25 km
Fr, 20.04. 14:30 41% 21 km
Fr, 20.04. 14:00 47% 20 km
Fr, 20.04. 13:30 48% 25 km
Fr, 20.04. 13:00 50% 25 km
Ortszeit Niederschlagsmenge Niederschlagsart
Fr, 20.04. 14:00 0.0 l/m2 in 6 Std. -
Fr, 20.04. 8:00 0.0 l/m2 in 12 Std. Nebel
Fr, 20.04. 2:00 0.0 l/m2 in 6 Std. -
Do, 19.04. 20:00 0.0 l/m2 in 12 Std. -
Do, 19.04. 14:00 0.0 l/m2 in 6 Std. -
Do, 19.04. 8:00 0.0 l/m2 in 12 Std. -
Do, 19.04. 2:00 0.0 l/m2 in 6 Std. -
Mi, 18.04. 20:00 0.0 l/m2 in 12 Std. -
Ortszeit Niederschlagsmenge Niederschlagsart
Fr, 20.04. 16:00 0.0 l/m2 in 1 Std. -
Fr, 20.04. 15:50 keine Meldung -
Fr, 20.04. 15:40 keine Meldung -
Fr, 20.04. 15:30 0.0 l/m2 in 1 Std. -
Fr, 20.04. 15:20 keine Meldung -
Fr, 20.04. 15:10 keine Meldung -
Fr, 20.04. 15:00 0.0 l/m2 in 1 Std. -
Fr, 20.04. 14:30 0.0 l/m2 in 1 Std. -
Fr, 20.04. 14:00 0.0 l/m2 in 1 Std. -
Fr, 20.04. 13:30 0.0 l/m2 in 1 Std. -
Fr, 20.04. 13:00 0.0 l/m2 in 1 Std. -
Ortszeit Stärke Spitze Richtung
km/h Bft. km/h Grad Sektor
Fr, 20.04. 14:00 18 3 40 200° S
Fr, 20.04. 8:00 7 2 14 170° S
Fr, 20.04. 2:00 4 1 11 190° S
Do, 19.04. 20:00 9 2 24 100° O
Do, 19.04. 14:00 13 3 20 70° O
Do, 19.04. 8:00 4 1 11 260° W
Do, 19.04. 2:00 7 2 22 260° W
Mi, 18.04. 20:00 11 2 31 320° NW
Ortszeit Stärke Spitze Richtung
km/h Bft. km/h Grad Sektor
Fr, 20.04. 16:00 18 3 36 210° SW
Fr, 20.04. 15:50 18 3 - 210° SW
Fr, 20.04. 15:40 18 3 - 210° SW
Fr, 20.04. 15:30 18 3 32 210° SW
Fr, 20.04. 15:20 18 3 - 210° SW
Fr, 20.04. 15:10 17 3 - 210° SW
Fr, 20.04. 15:00 17 3 37 200° S
Fr, 20.04. 14:30 24 4 37 210° SW
Fr, 20.04. 14:00 18 3 36 200° S
Fr, 20.04. 13:30 18 3 32 200° S
Fr, 20.04. 13:00 22 4 40 190° S
Ortszeit Untergrenze Bedeckung Gattung
total tief tief mittel hoch
Fr, 20.04. 14:00 9000 m 1/8 0/8 - - Ci
Fr, 20.04. 8:00 - 0/8 0/8 - - -
Fr, 20.04. 2:00 - 0/8 0/8 - - -
Do, 19.04. 20:00 10500 m 6/8 0/8 - - Ci
Do, 19.04. 14:00 900 m 1/8 1/8 Cu - Ci
Do, 19.04. 8:00 - 0/8 0/8 - - -
Do, 19.04. 2:00 - 0/8 0/8 - - -
Mi, 18.04. 20:00 - 0/8 0/8 - - -
Ortszeit Bedeckungsgrad in Achtel und Wolkenuntergrenze
Fr, 20.04. 16:00 1(9000m)
Fr, 20.04. 15:50 keine Wolken
Fr, 20.04. 15:40 keine Wolken
Fr, 20.04. 15:30 1(9000m)
Fr, 20.04. 15:20 keine Wolken
Fr, 20.04. 15:10 keine Wolken
Fr, 20.04. 15:00 1(9000m)
Fr, 20.04. 14:30 1(9000m)
Fr, 20.04. 14:00 1(9000m)
Fr, 20.04. 13:30 1(9000m)
Fr, 20.04. 13:00 1(9000m)
Ortszeit Luftdruck NN (hPa) Tendenz (hPa in 3 Std.)
Fr, 20.04. 14:00 1022 - 2,6
Fr, 20.04. 8:00 1026 - 1,4
Fr, 20.04. 2:00 1029 - 1,0
Do, 19.04. 20:00 1030 - 1,1
Do, 19.04. 14:00 1032 - 0,4
Do, 19.04. 8:00 1033 + 0,4
Do, 19.04. 2:00 1032 0,0
Mi, 18.04. 20:00 1032 + 0,4
Ortszeit Luftdruck NN (hPa) Tendenz (hPa in 3 Std.)
Fr, 20.04. 16:00 1020 - 2,8
Fr, 20.04. 15:50 1020 keine Meldung
Fr, 20.04. 15:40 1020 keine Meldung
Fr, 20.04. 15:30 1020 - 2,8
Fr, 20.04. 15:20 1020 keine Meldung
Fr, 20.04. 15:10 1021 keine Meldung
Fr, 20.04. 15:00 1021 - 2,8
Fr, 20.04. 14:30 1022 - 2,5
Fr, 20.04. 14:00 1022 - 2,6
Fr, 20.04. 13:30 1022 - 2,5
Fr, 20.04. 13:00 1023 - 2,3
Ortszeit Schneehöhe (cm)
Fr, 20.04. 14:00 0
Fr, 20.04. 8:00 0
Fr, 20.04. 2:00 0
Do, 19.04. 20:00 0
Do, 19.04. 14:00 0
Do, 19.04. 8:00 0
Do, 19.04. 2:00 0
Mi, 18.04. 20:00 0
Ortszeit Schneehöhe (cm)
Fr, 20.04. 16:00 -
Fr, 20.04. 15:50 -
Fr, 20.04. 15:40 -
Fr, 20.04. 15:30 -
Fr, 20.04. 15:20 -
Fr, 20.04. 15:10 -
Fr, 20.04. 15:00 -
Fr, 20.04. 14:30 -
Fr, 20.04. 14:00 0
Fr, 20.04. 13:30 -
Fr, 20.04. 13:00 -
Link zu dieser Seite / Seite empfehlen

Das Wetter in ...